createdAt,value
2023-05-10T00:02:47.519Z,23.25
2023-05-10T00:05:51.684Z,24.44
2023-05-10T00:08:55.621Z,24.87
2023-05-10T00:11:59.977Z,25.18
2023-05-10T00:15:04.802Z,25.10
2023-05-10T00:18:08.859Z,25.32
2023-05-10T00:21:12.830Z,25.64
2023-05-10T00:24:16.970Z,25.78
2023-05-10T00:27:21.001Z,26.05
2023-05-10T00:30:25.056Z,26.10
2023-05-10T00:33:27.986Z,26.68
2023-05-10T00:36:31.260Z,26.56
2023-05-10T00:39:34.911Z,25.84
2023-05-10T00:42:38.860Z,26.36
2023-05-10T00:45:43.537Z,25.93
2023-05-10T00:48:48.544Z,25.59
2023-05-10T00:51:52.385Z,26.41
2023-05-10T00:54:57.171Z,26.71
2023-05-10T00:58:01.014Z,26.78
2023-05-10T01:01:05.169Z,26.22
2023-05-10T01:04:08.837Z,26.34
2023-05-10T01:07:12.955Z,26.46
2023-05-10T01:10:17.292Z,26.84
2023-05-10T01:13:38.046Z,27.16
2023-05-10T01:16:43.829Z,26.72
2023-05-10T01:19:47.147Z,27.04
2023-05-10T01:23:21.696Z,27.53
2023-05-10T01:26:51.577Z,27.44
2023-05-10T01:30:17.291Z,28.11
2023-05-10T01:33:27.115Z,28.16
2023-05-10T01:36:56.958Z,28.18
2023-05-10T01:40:10.288Z,28.23
2023-05-10T01:43:23.620Z,29.04
2023-05-10T01:46:41.614Z,28.67
2023-05-10T01:49:55.075Z,29.05
2023-05-10T01:53:01.138Z,28.12
2023-05-10T01:56:05.395Z,27.87
2023-05-10T01:59:16.038Z,29.51
2023-05-10T02:02:22.706Z,29.37
2023-05-10T02:05:27.101Z,29.03
2023-05-10T02:08:31.681Z,29.38
2023-05-10T02:11:35.879Z,30.11
2023-05-10T02:14:41.609Z,29.76
2023-05-10T02:17:48.579Z,30.03
2023-05-10T02:20:55.504Z,29.86
2023-05-10T02:24:00.954Z,29.62
2023-05-10T02:27:06.555Z,29.98
2023-05-10T02:30:13.780Z,29.87
2023-05-10T02:33:16.994Z,30.51
2023-05-10T02:36:23.094Z,30.70
2023-05-10T02:39:30.049Z,30.48
2023-05-10T02:42:38.136Z,30.67
2023-05-10T02:45:42.129Z,30.56
2023-05-10T02:48:46.319Z,30.76
2023-05-10T02:51:55.793Z,31.48
2023-05-10T02:55:05.108Z,30.82
2023-05-10T02:58:08.547Z,30.30
2023-05-10T03:01:12.601Z,30.62
2023-05-10T03:04:16.738Z,30.38
2023-05-10T03:07:23.151Z,30.43
2023-05-10T03:10:31.100Z,31.14
2023-05-10T03:13:40.487Z,31.60
2023-05-10T03:16:58.365Z,31.12
2023-05-10T03:20:13.626Z,31.03
2023-05-10T03:23:20.141Z,30.67
2023-05-10T03:26:28.490Z,30.50
2023-05-10T03:29:48.032Z,30.19
2023-05-10T03:32:52.296Z,29.68
2023-05-10T03:35:55.889Z,29.50
2023-05-10T03:38:59.917Z,29.34
2023-05-10T03:42:03.934Z,29.27
2023-05-10T03:45:09.180Z,29.20
2023-05-10T03:48:15.170Z,29.51
2023-05-10T03:51:19.706Z,29.84
2023-05-10T03:54:23.384Z,29.73
2023-05-10T03:57:27.487Z,29.75
2023-05-10T04:00:31.774Z,29.82
2023-05-10T04:03:38.463Z,30.00
2023-05-10T04:06:42.346Z,30.00
2023-05-10T04:09:46.548Z,29.90
2023-05-10T04:12:50.074Z,29.70
2023-05-10T04:15:53.996Z,29.48
2023-05-10T04:18:57.988Z,29.50
2023-05-10T04:22:02.103Z,29.65
2023-05-10T04:25:06.345Z,29.27
2023-05-10T04:28:10.565Z,29.28
2023-05-10T04:31:14.381Z,29.51
2023-05-10T04:34:18.278Z,29.66
2023-05-10T04:37:22.972Z,29.57
2023-05-10T04:40:27.828Z,29.38
2023-05-10T04:43:31.488Z,29.41
2023-05-10T04:46:35.492Z,29.04
2023-05-10T04:49:39.242Z,28.87
2023-05-10T04:52:43.240Z,29.13
2023-05-10T04:55:48.315Z,29.27
2023-05-10T04:58:52.339Z,29.21
2023-05-10T05:01:56.007Z,29.14
2023-05-10T05:04:59.880Z,29.25
2023-05-10T05:08:03.583Z,29.08
2023-05-10T05:11:07.492Z,28.90
2023-05-10T05:14:11.084Z,29.00
2023-05-10T05:17:15.102Z,29.21
2023-05-10T05:20:20.502Z,29.59
2023-05-10T05:23:26.675Z,29.87
2023-05-10T05:26:30.222Z,29.85
2023-05-10T05:29:34.451Z,29.76
2023-05-10T05:32:38.064Z,30.01
2023-05-10T05:35:42.012Z,30.12
2023-05-10T05:38:46.635Z,30.17
2023-05-10T05:41:50.409Z,30.00
2023-05-10T05:44:54.017Z,29.98
2023-05-10T05:47:58.472Z,29.89
2023-05-10T05:51:04.619Z,29.87
2023-05-10T05:54:10.174Z,29.78
2023-05-10T05:57:13.265Z,29.93
2023-05-10T06:00:17.239Z,30.00
2023-05-10T06:03:22.444Z,30.00
2023-05-10T06:06:26.040Z,30.19
2023-05-10T06:09:29.025Z,30.44
2023-05-10T06:12:33.030Z,30.34
2023-05-10T06:15:36.641Z,30.26
2023-05-10T06:18:40.687Z,30.22
2023-05-10T06:21:44.313Z,30.17
2023-05-10T06:24:48.302Z,30.14
2023-05-10T06:27:53.898Z,30.35
2023-05-10T06:30:57.927Z,30.45
2023-05-10T06:34:01.606Z,30.45
2023-05-10T06:37:05.663Z,30.48
2023-05-10T06:40:09.769Z,30.58
2023-05-10T06:43:14.162Z,30.59
2023-05-10T06:46:17.917Z,30.49
2023-05-10T06:49:21.588Z,30.64
2023-05-10T06:52:25.225Z,30.56
2023-05-10T06:55:28.883Z,30.39
2023-05-10T06:58:34.171Z,30.21
2023-05-10T07:01:38.226Z,29.93
2023-05-10T07:04:41.934Z,29.70
2023-05-10T07:07:46.049Z,29.49
2023-05-10T07:10:49.925Z,29.36
2023-05-10T07:13:53.833Z,29.32
2023-05-10T07:16:57.455Z,29.38
2023-05-10T07:20:02.250Z,29.29
2023-05-10T07:23:05.817Z,29.32
2023-05-10T07:26:10.015Z,29.41
2023-05-10T07:29:13.758Z,29.50
2023-05-10T07:32:17.599Z,29.48
2023-05-10T07:35:21.351Z,29.21
2023-05-10T07:38:25.328Z,28.90
2023-05-10T07:41:28.853Z,28.63
2023-05-10T07:44:32.980Z,28.42
2023-05-10T07:47:36.632Z,28.19
2023-05-10T07:50:40.583Z,28.04
2023-05-10T07:53:44.149Z,27.82
2023-05-10T07:56:49.144Z,27.76
2023-05-10T07:59:52.775Z,27.75
2023-05-10T08:02:56.756Z,27.82
2023-05-10T08:06:01.166Z,27.75
2023-05-10T08:09:05.078Z,27.76
2023-05-10T08:12:08.779Z,27.83
2023-05-10T08:15:12.847Z,27.76
2023-05-10T08:18:16.604Z,27.89
2023-05-10T08:21:22.901Z,27.98
2023-05-10T08:24:27.874Z,28.03
2023-05-10T08:27:31.148Z,27.97
2023-05-10T08:30:34.297Z,27.94
2023-05-10T08:33:37.956Z,28.02
2023-05-10T08:36:41.690Z,28.00
2023-05-10T08:39:49.641Z,27.93
2023-05-10T08:43:08.791Z,27.96
2023-05-10T08:46:13.007Z,27.71
2023-05-10T08:49:22.424Z,27.67
2023-05-10T08:52:28.872Z,27.55
2023-05-10T08:55:32.066Z,27.42
2023-05-10T08:58:36.004Z,27.31
2023-05-10T09:01:39.341Z,27.29
2023-05-10T09:04:44.200Z,27.18
2023-05-10T09:07:47.894Z,27.10
2023-05-10T09:10:51.312Z,27.06
2023-05-10T09:13:55.010Z,27.00
2023-05-10T09:16:58.974Z,26.98
2023-05-10T09:20:04.174Z,26.98
2023-05-10T09:23:08.640Z,26.97
2023-05-10T09:26:12.332Z,26.89
2023-05-10T09:29:17.675Z,26.76
2023-05-10T09:32:21.636Z,26.56
2023-05-10T09:35:29.699Z,26.50
2023-05-10T09:38:52.362Z,26.39
2023-05-10T09:41:55.310Z,26.16
2023-05-10T09:45:06.603Z,26.07
2023-05-10T09:48:10.516Z,25.90
2023-05-10T09:51:25.063Z,25.82
2023-05-10T09:54:29.098Z,25.63
2023-05-10T09:57:34.642Z,25.65
2023-05-10T10:00:44.162Z,25.70
2023-05-10T10:03:47.888Z,25.75
2023-05-10T10:07:02.393Z,25.81
2023-05-10T10:10:06.419Z,25.70
2023-05-10T10:13:09.969Z,25.61
2023-05-10T10:16:13.081Z,25.52
2023-05-10T10:19:17.227Z,25.52
2023-05-10T10:22:20.337Z,25.56
2023-05-10T10:25:24.506Z,25.52
2023-05-10T10:28:34.094Z,25.43
2023-05-10T10:31:49.588Z,25.38
2023-05-10T10:34:53.773Z,25.26
2023-05-10T10:37:58.541Z,25.13
2023-05-10T10:41:12.408Z,25.15
2023-05-10T10:44:26.737Z,25.14
2023-05-10T10:47:34.576Z,25.09
2023-05-10T10:50:47.643Z,25.15
2023-05-10T10:53:51.346Z,24.99
2023-05-10T10:57:15.435Z,24.90
2023-05-10T11:00:26.481Z,24.75
2023-05-10T11:03:30.864Z,24.52
2023-05-10T11:06:34.973Z,24.47
2023-05-10T11:09:42.678Z,24.48
2023-05-10T11:13:09.573Z,24.44
2023-05-10T11:16:14.726Z,24.21
2023-05-10T11:19:19.895Z,24.02
2023-05-10T11:22:27.647Z,23.84
2023-05-10T11:25:30.725Z,23.72
2023-05-10T11:28:34.852Z,23.55
2023-05-10T11:31:45.380Z,23.41
2023-05-10T11:34:50.266Z,23.32
2023-05-10T11:37:53.799Z,23.27
2023-05-10T11:40:57.758Z,23.16
2023-05-10T11:44:01.453Z,23.08
2023-05-10T11:47:05.893Z,22.96
2023-05-10T11:50:10.023Z,22.75
2023-05-10T11:53:15.580Z,22.60
2023-05-10T11:56:18.620Z,22.44
2023-05-10T11:59:21.916Z,22.32
2023-05-10T12:02:26.198Z,22.22
2023-05-10T12:05:30.199Z,22.14
2023-05-10T12:08:33.149Z,22.09
2023-05-10T12:11:44.196Z,22.12
2023-05-10T12:14:52.732Z,22.04
2023-05-10T12:17:56.308Z,22.03
2023-05-10T12:21:08.118Z,21.94
2023-05-10T12:24:12.058Z,21.79
2023-05-10T12:30:37.476Z,21.61
2023-05-10T12:33:45.491Z,21.60
2023-05-10T12:36:53.925Z,21.59
2023-05-10T12:39:57.569Z,21.52
2023-05-10T12:43:01.719Z,21.46
2023-05-10T12:46:16.435Z,21.51
2023-05-10T12:49:21.510Z,21.43
2023-05-10T12:52:24.806Z,21.38
2023-05-10T12:55:28.808Z,21.29
2023-05-10T12:58:36.120Z,21.35
2023-05-10T13:01:40.342Z,21.39
2023-05-10T13:04:44.246Z,21.44
2023-05-10T13:07:48.336Z,21.38
2023-05-10T13:10:52.069Z,21.31
2023-05-10T13:13:56.265Z,21.21
2023-05-10T13:17:00.281Z,21.10
2023-05-10T13:20:05.285Z,21.10
2023-05-10T13:23:08.186Z,21.03
2023-05-10T13:26:11.168Z,20.90
2023-05-10T13:29:14.818Z,20.95
2023-05-10T13:32:18.810Z,21.11
2023-05-10T13:35:22.767Z,21.18
2023-05-10T13:38:26.836Z,21.25
2023-05-10T13:41:30.600Z,21.31
2023-05-10T13:44:35.305Z,21.28
2023-05-10T13:47:38.299Z,21.29
2023-05-10T13:50:42.176Z,21.25
2023-05-10T13:53:45.771Z,21.21
2023-05-10T13:56:50.435Z,21.21
2023-05-10T13:59:55.831Z,21.24
2023-05-10T14:03:01.212Z,21.21
2023-05-10T14:06:04.944Z,21.20
2023-05-10T14:09:09.375Z,21.19
2023-05-10T14:12:13.059Z,21.18
2023-05-10T14:15:17.094Z,21.15
2023-05-10T14:18:21.244Z,21.22
2023-05-10T14:21:25.293Z,21.32
2023-05-10T14:24:28.233Z,21.36
2023-05-10T14:27:31.921Z,21.32
2023-05-10T14:30:38.200Z,21.20
2023-05-10T14:33:41.518Z,21.11
2023-05-10T14:36:45.241Z,21.03
2023-05-10T14:39:48.630Z,20.93
2023-05-10T14:42:53.910Z,20.91
2023-05-10T14:45:58.010Z,20.94
2023-05-10T14:49:02.127Z,20.93
2023-05-10T14:52:05.705Z,20.97
2023-05-10T14:55:10.488Z,20.96
2023-05-10T14:58:13.543Z,20.96
2023-05-10T15:01:17.672Z,20.96
2023-05-10T15:04:22.797Z,20.87
2023-05-10T15:07:27.095Z,20.77
2023-05-10T15:10:30.573Z,20.74
2023-05-10T15:13:35.664Z,20.76
2023-05-10T15:16:39.268Z,20.70
2023-05-10T15:19:43.433Z,20.65
2023-05-10T15:22:46.412Z,20.68
2023-05-10T15:25:51.762Z,20.69
2023-05-10T15:28:55.802Z,20.61
2023-05-10T15:31:59.695Z,20.55
2023-05-10T15:35:04.154Z,20.55
2023-05-10T15:38:09.059Z,20.50
2023-05-10T15:41:11.899Z,20.50
2023-05-10T15:44:16.483Z,20.48
2023-05-10T15:47:20.142Z,20.43
2023-05-10T15:50:23.604Z,20.36
2023-05-10T15:53:26.718Z,20.30
2023-05-10T15:56:31.625Z,20.28
2023-05-10T15:59:36.347Z,20.28
2023-05-10T16:02:41.920Z,20.27
2023-05-10T16:05:45.564Z,20.25
2023-05-10T16:08:49.000Z,20.20
2023-05-10T16:11:52.658Z,20.10
2023-05-10T16:14:57.032Z,20.09
2023-05-10T16:18:00.845Z,20.09
2023-05-10T16:21:04.930Z,20.04
2023-05-10T16:24:08.741Z,20.00
2023-05-10T16:27:14.156Z,20.02
2023-05-10T16:30:17.793Z,19.99
2023-05-10T16:33:21.767Z,19.95
2023-05-10T16:36:25.532Z,20.02
2023-05-10T16:39:29.462Z,20.01
2023-05-10T16:42:33.095Z,19.95
2023-05-10T16:45:37.449Z,19.91
2023-05-10T16:48:41.161Z,19.96
2023-05-10T16:51:45.408Z,19.99
2023-05-10T16:54:48.412Z,19.92
2023-05-10T16:57:52.709Z,19.86
2023-05-10T17:00:55.585Z,19.84
2023-05-10T17:03:59.579Z,19.83
2023-05-10T17:07:02.499Z,19.83
2023-05-10T17:10:06.024Z,19.90
2023-05-10T17:13:10.365Z,19.82
2023-05-10T17:16:14.309Z,19.64
2023-05-10T17:19:18.236Z,19.35
2023-05-10T17:22:22.055Z,19.24
2023-05-10T17:25:25.269Z,19.23
2023-05-10T17:28:28.307Z,19.22
2023-05-10T17:31:33.468Z,19.20
2023-05-10T17:35:01.395Z,19.07
2023-05-10T17:38:05.386Z,19.02
2023-05-10T17:41:08.982Z,18.94
2023-05-10T17:44:13.894Z,18.73
2023-05-10T17:47:17.207Z,18.65
2023-05-10T17:50:20.318Z,18.55
2023-05-10T17:53:23.675Z,18.52
2023-05-10T17:56:27.890Z,18.52
2023-05-10T17:59:31.796Z,18.54
2023-05-10T18:02:37.571Z,18.98
2023-05-10T18:05:41.574Z,19.25
2023-05-10T18:08:45.935Z,19.18
2023-05-10T18:11:48.903Z,19.05
2023-05-10T18:14:52.639Z,19.05
2023-05-10T18:17:57.168Z,18.96
2023-05-10T18:21:01.745Z,18.58
2023-05-10T18:24:06.348Z,18.28
2023-05-10T18:27:12.190Z,18.10
2023-05-10T18:30:15.840Z,17.91
2023-05-10T18:33:19.931Z,17.70
2023-05-10T18:36:24.368Z,17.64
2023-05-10T18:39:27.892Z,17.50
2023-05-10T18:42:32.133Z,17.35
2023-05-10T18:45:35.473Z,17.27
2023-05-10T18:48:39.631Z,17.34
2023-05-10T18:51:42.448Z,17.22
2023-05-10T18:54:45.898Z,17.36
2023-05-10T18:57:48.872Z,17.35
2023-05-10T19:00:53.662Z,17.32
2023-05-10T19:03:57.237Z,17.57
2023-05-10T19:07:02.584Z,17.69
2023-05-10T19:10:06.311Z,17.67
2023-05-10T19:13:09.976Z,17.68
2023-05-10T19:16:21.806Z,17.41
2023-05-10T19:19:26.067Z,17.59
2023-05-10T19:25:37.600Z,17.22
2023-05-10T19:28:41.644Z,17.21
2023-05-10T19:31:45.492Z,17.08
2023-05-10T19:34:51.165Z,16.67
2023-05-10T19:37:54.756Z,16.41
2023-05-10T19:41:00.150Z,16.41
2023-05-10T19:44:04.170Z,16.55
2023-05-10T19:47:09.913Z,16.37
2023-05-10T19:50:14.308Z,16.27
2023-05-10T19:53:18.422Z,16.34
2023-05-10T19:56:22.220Z,16.33
2023-05-10T19:59:25.278Z,16.37
2023-05-10T20:02:28.280Z,16.24
2023-05-10T20:05:31.288Z,16.07
2023-05-10T20:08:34.805Z,15.83
2023-05-10T20:11:38.421Z,15.75
2023-05-10T20:14:41.789Z,15.66
2023-05-10T20:17:45.701Z,15.63
2023-05-10T20:20:48.880Z,15.49
2023-05-10T20:23:52.493Z,15.66
2023-05-10T20:26:57.179Z,15.46
2023-05-10T20:30:00.813Z,15.14
2023-05-10T20:33:05.152Z,14.91
2023-05-10T20:36:10.127Z,14.63
2023-05-10T20:39:14.098Z,14.57
2023-05-10T20:42:18.048Z,14.55
2023-05-10T20:45:22.177Z,14.38
2023-05-10T20:48:25.538Z,14.16
2023-05-10T20:51:31.317Z,14.12
2023-05-10T20:54:34.258Z,14.40
2023-05-10T20:57:37.640Z,14.28
2023-05-10T21:00:41.338Z,14.18
2023-05-10T21:03:44.985Z,14.20
2023-05-10T21:06:48.279Z,14.48
2023-05-10T21:09:52.466Z,14.80
2023-05-10T21:12:56.394Z,14.75
2023-05-10T21:15:59.856Z,14.78
2023-05-10T21:19:03.235Z,14.73
2023-05-10T21:22:07.382Z,14.75
2023-05-10T21:25:10.716Z,14.91
2023-05-10T21:28:14.157Z,15.02
2023-05-10T21:31:17.561Z,15.17
2023-05-10T21:34:22.202Z,15.08
2023-05-10T21:37:27.372Z,15.13
2023-05-10T21:40:31.366Z,14.98
2023-05-10T21:43:35.212Z,15.31
2023-05-10T21:46:39.176Z,15.25
2023-05-10T21:49:42.694Z,14.89
2023-05-10T21:52:46.605Z,14.65
2023-05-10T21:55:50.230Z,14.59
2023-05-10T21:58:54.262Z,14.62
2023-05-10T22:01:57.220Z,14.69
2023-05-10T22:05:00.517Z,15.01
2023-05-10T22:08:03.488Z,15.30
2023-05-10T22:11:06.803Z,15.28
2023-05-10T22:14:09.707Z,15.29
2023-05-10T22:17:14.991Z,15.52
2023-05-10T22:20:19.437Z,15.42
2023-05-10T22:23:23.619Z,15.61
2023-05-10T22:26:27.803Z,15.51
2023-05-10T22:29:31.415Z,15.70
2023-05-10T22:32:35.192Z,15.84
2023-05-10T22:35:45.081Z,15.62
2023-05-10T22:38:48.860Z,15.35
2023-05-10T22:41:52.479Z,15.14
2023-05-10T22:44:55.699Z,15.28
2023-05-10T22:48:00.598Z,15.55
2023-05-10T22:51:04.269Z,15.67
2023-05-10T22:54:07.880Z,15.95
2023-05-10T22:57:10.805Z,16.07
2023-05-10T23:00:15.529Z,16.12
2023-05-10T23:03:18.836Z,16.04
2023-05-10T23:06:22.072Z,16.26
2023-05-10T23:09:25.095Z,16.56
2023-05-10T23:12:28.275Z,16.68
2023-05-10T23:15:33.615Z,17.05
2023-05-10T23:18:37.560Z,17.81
2023-05-10T23:21:41.381Z,18.73
2023-05-10T23:24:45.107Z,19.69
2023-05-10T23:27:48.013Z,21.02
2023-05-10T23:30:59.572Z,21.69
2023-05-10T23:34:03.487Z,20.87
2023-05-10T23:37:07.409Z,20.26
2023-05-10T23:40:11.536Z,19.79
2023-05-10T23:43:17.004Z,20.38
2023-05-10T23:46:19.988Z,22.57
2023-05-10T23:49:23.105Z,23.64
2023-05-10T23:52:26.166Z,24.81
2023-05-10T23:55:29.103Z,25.85
2023-05-10T23:58:32.723Z,26.20
